createdAt,value
2022-12-13T00:01:58.854Z,11.45
2022-12-13T00:04:26.994Z,10.63
2022-12-13T00:06:54.439Z,11.38
2022-12-13T00:09:24.200Z,10.10
2022-12-13T00:11:52.505Z,9.98
2022-12-13T00:14:19.837Z,8.65
2022-12-13T00:16:48.827Z,11.75
2022-12-13T00:19:17.181Z,8.77
2022-12-13T00:21:44.941Z,11.25
2022-12-13T00:24:12.248Z,8.73
2022-12-13T00:26:39.691Z,8.68
2022-12-13T00:29:08.463Z,8.18
2022-12-13T00:31:58.707Z,8.80
2022-12-13T00:34:24.534Z,9.65
2022-12-13T00:36:54.666Z,11.27
2022-12-13T00:39:22.464Z,8.23
2022-12-13T00:41:49.978Z,7.95
2022-12-13T00:44:19.828Z,9.10
2022-12-13T00:46:47.410Z,9.23
2022-12-13T00:49:14.829Z,7.97
2022-12-13T00:51:42.184Z,8.95
2022-12-13T00:54:10.579Z,8.55
2022-12-13T00:56:38.581Z,13.02
2022-12-13T00:59:06.183Z,8.77
2022-12-13T01:01:36.713Z,9.07
2022-12-13T01:04:06.556Z,8.82
2022-12-13T01:06:39.167Z,7.60
2022-12-13T01:09:12.439Z,7.93
2022-12-13T01:11:39.727Z,9.27
2022-12-13T01:14:06.972Z,8.45
2022-12-13T01:16:34.336Z,11.05
2022-12-13T01:19:02.009Z,9.25
2022-12-13T01:21:29.847Z,9.13
2022-12-13T01:24:05.416Z,9.27
2022-12-13T01:26:33.782Z,9.38
2022-12-13T01:29:02.399Z,10.23
2022-12-13T01:31:29.717Z,9.20
2022-12-13T01:33:58.234Z,9.57
2022-12-13T01:36:27.753Z,10.45
2022-12-13T01:38:58.429Z,8.95
2022-12-13T01:41:28.408Z,10.40
2022-12-13T01:44:03.176Z,10.77
2022-12-13T01:46:33.447Z,11.70
2022-12-13T01:49:00.795Z,10.15
2022-12-13T01:51:53.151Z,10.82
2022-12-13T01:54:34.108Z,11.32
2022-12-13T01:57:07.179Z,9.73
2022-12-13T02:02:07.266Z,11.18
2022-12-13T02:04:46.808Z,9.43
2022-12-13T02:07:23.286Z,9.63
2022-12-13T02:09:56.692Z,9.25
2022-12-13T02:12:30.761Z,10.20
2022-12-13T02:15:05.157Z,9.30
2022-12-13T02:17:54.156Z,10.50
2022-12-13T02:20:21.731Z,9.68
2022-12-13T02:23:31.214Z,10.13
2022-12-13T02:26:07.612Z,7.97
2022-12-13T02:29:12.524Z,10.10
2022-12-13T02:32:07.029Z,10.40
2022-12-13T02:34:34.375Z,10.90
2022-12-13T02:37:18.286Z,10.48
2022-12-13T02:40:00.944Z,10.50
2022-12-13T02:42:37.866Z,10.52
2022-12-13T02:45:21.242Z,11.25
2022-12-13T02:50:17.516Z,10.82
2022-12-13T02:52:46.788Z,9.90
2022-12-13T02:55:16.464Z,9.95
2022-12-13T02:57:45.937Z,9.80
2022-12-13T03:00:31.095Z,10.68
2022-12-13T03:03:20.400Z,9.32
2022-12-13T03:06:11.355Z,10.13
2022-12-13T03:09:09.905Z,9.27
2022-12-13T03:12:34.507Z,10.90
2022-12-13T03:15:10.862Z,11.73
2022-12-13T03:17:52.208Z,10.02
2022-12-13T03:20:25.511Z,10.90
2022-12-13T03:22:54.189Z,9.90
2022-12-13T03:25:31.799Z,11.15
2022-12-13T03:28:02.390Z,9.57
2022-12-13T03:30:33.861Z,10.68
2022-12-13T03:33:01.407Z,10.98
2022-12-13T03:35:34.497Z,8.90
2022-12-13T03:38:13.469Z,8.23
2022-12-13T03:40:56.273Z,9.35
2022-12-13T03:43:23.878Z,10.73
2022-12-13T03:45:52.568Z,10.48
2022-12-13T03:48:22.577Z,11.13
2022-12-13T03:50:51.880Z,10.35
2022-12-13T03:53:22.188Z,8.98
2022-12-13T03:55:50.829Z,11.13
2022-12-13T03:58:18.310Z,11.98
2022-12-13T04:00:45.591Z,10.18
2022-12-13T04:03:12.987Z,10.65
2022-12-13T04:05:40.404Z,10.45
2022-12-13T04:08:21.713Z,11.73
2022-12-13T04:10:49.904Z,10.27
2022-12-13T04:13:32.551Z,10.43
2022-12-13T04:16:01.631Z,10.27
2022-12-13T04:18:28.998Z,12.50
2022-12-13T04:20:57.569Z,10.93
2022-12-13T04:23:25.059Z,9.68
2022-12-13T04:25:52.361Z,9.07
2022-12-13T04:28:21.508Z,9.98
2022-12-13T04:30:53.348Z,9.18
2022-12-13T04:33:24.888Z,10.50
2022-12-13T04:35:52.367Z,9.75
2022-12-13T04:38:20.528Z,10.10
2022-12-13T04:40:47.942Z,10.70
2022-12-13T04:43:15.290Z,13.20
2022-12-13T04:45:42.883Z,10.02
2022-12-13T04:48:10.208Z,9.73
2022-12-13T04:50:37.570Z,8.88
2022-12-13T04:53:04.860Z,10.85
2022-12-13T04:55:32.291Z,10.77
2022-12-13T04:57:59.528Z,11.45
2022-12-13T05:00:26.961Z,9.00
2022-12-13T05:02:54.304Z,10.07
2022-12-13T05:05:22.508Z,10.73
2022-12-13T05:07:49.899Z,9.10
2022-12-13T05:10:33.953Z,9.82
2022-12-13T05:13:05.617Z,9.88
2022-12-13T05:15:33.792Z,10.68
2022-12-13T05:18:10.288Z,11.68
2022-12-13T05:20:39.948Z,13.40
2022-12-13T05:23:07.482Z,11.40
2022-12-13T05:25:37.058Z,10.02
2022-12-13T05:28:08.909Z,13.55
2022-12-13T05:30:54.024Z,9.13
2022-12-13T05:33:23.056Z,8.82
2022-12-13T05:35:52.901Z,9.73
2022-12-13T05:38:22.390Z,10.13
2022-12-13T05:40:49.678Z,11.35
2022-12-13T05:43:22.134Z,9.77
2022-12-13T05:45:50.487Z,9.23
2022-12-13T05:48:24.854Z,8.55
2022-12-13T05:51:09.847Z,9.57
2022-12-13T05:53:42.104Z,8.52
2022-12-13T05:56:11.164Z,8.80
2022-12-13T05:58:41.321Z,10.30
2022-12-13T06:01:11.337Z,8.93
2022-12-13T06:03:39.599Z,8.20
2022-12-13T06:06:08.943Z,9.05
2022-12-13T06:08:36.762Z,9.98
2022-12-13T06:11:10.310Z,9.02
2022-12-13T06:13:42.635Z,10.48
2022-12-13T06:16:23.969Z,9.43
2022-12-13T06:18:59.470Z,8.27
2022-12-13T06:21:41.400Z,9.23
2022-12-13T06:24:17.444Z,9.75
2022-12-13T06:26:45.869Z,8.82
2022-12-13T06:29:22.518Z,9.18
2022-12-13T06:32:03.598Z,7.55
2022-12-13T06:34:33.502Z,8.18
2022-12-13T06:37:04.039Z,8.65
2022-12-13T06:39:32.313Z,9.50
2022-12-13T06:42:02.418Z,8.38
2022-12-13T06:44:29.737Z,10.20
2022-12-13T06:47:11.087Z,8.98
2022-12-13T06:49:43.151Z,8.43
2022-12-13T06:52:13.115Z,10.18
2022-12-13T06:54:41.757Z,8.63
2022-12-13T06:57:10.004Z,7.60
2022-12-13T06:59:37.305Z,9.07
2022-12-13T07:02:05.959Z,7.70
2022-12-13T07:04:33.377Z,7.63
2022-12-13T07:07:01.993Z,7.30
2022-12-13T07:09:33.081Z,8.18
2022-12-13T07:12:00.801Z,7.82
2022-12-13T07:14:28.470Z,8.48
2022-12-13T07:17:03.179Z,9.23
2022-12-13T07:19:42.401Z,7.28
2022-12-13T07:22:09.790Z,8.23
2022-12-13T07:24:37.156Z,7.70
2022-12-13T07:27:04.615Z,8.07
2022-12-13T07:29:31.929Z,7.53
2022-12-13T07:32:01.585Z,8.07
2022-12-13T07:34:30.653Z,11.82
2022-12-13T07:36:58.292Z,9.00
2022-12-13T07:39:26.320Z,8.38
2022-12-13T07:41:55.861Z,10.10
2022-12-13T07:44:24.200Z,9.40
2022-12-13T07:46:51.776Z,7.32
2022-12-13T07:49:19.402Z,9.85
2022-12-13T07:51:47.954Z,9.05
2022-12-13T07:54:15.596Z,9.27
2022-12-13T07:56:42.876Z,12.75
2022-12-13T08:01:58.211Z,11.38
2022-12-13T08:04:29.607Z,13.52
2022-12-13T08:07:09.488Z,10.63
2022-12-13T08:09:37.757Z,11.98
2022-12-13T08:12:05.503Z,10.05
2022-12-13T08:14:33.333Z,14.23
2022-12-13T08:17:00.939Z,11.02
2022-12-13T08:19:28.209Z,14.30
2022-12-13T08:21:58.357Z,14.50
2022-12-13T08:24:30.336Z,9.68
2022-12-13T08:27:01.757Z,12.80
2022-12-13T08:29:35.996Z,9.32
2022-12-13T08:32:06.903Z,9.85
2022-12-13T08:34:36.517Z,9.30
2022-12-13T08:37:07.119Z,9.30
2022-12-13T08:39:37.216Z,9.57
2022-12-13T08:42:15.885Z,8.55
2022-12-13T08:44:47.735Z,10.85
2022-12-13T08:47:24.717Z,9.60
2022-12-13T08:50:02.354Z,8.48
2022-12-13T08:52:39.477Z,9.68
2022-12-13T08:55:13.574Z,10.20
2022-12-13T08:57:43.077Z,6.95
2022-12-13T09:00:20.070Z,7.82
2022-12-13T09:02:47.514Z,9.32
2022-12-13T09:05:34.130Z,8.73
2022-12-13T09:08:04.393Z,10.65
2022-12-13T09:10:59.593Z,8.38
2022-12-13T09:13:33.660Z,8.65
2022-12-13T09:16:24.531Z,9.73
2022-12-13T09:18:56.028Z,8.90
2022-12-13T09:21:31.643Z,13.30
2022-12-13T09:24:01.329Z,8.15
2022-12-13T09:26:29.966Z,9.23
2022-12-13T09:29:11.400Z,7.28
2022-12-13T09:31:40.423Z,8.20
2022-12-13T09:34:10.197Z,9.70
2022-12-13T09:36:37.572Z,9.27
2022-12-13T09:39:05.177Z,11.02
2022-12-13T09:41:43.173Z,7.65
2022-12-13T09:44:32.234Z,10.82
2022-12-13T09:47:04.373Z,9.80
2022-12-13T09:49:51.778Z,10.40
2022-12-13T09:52:24.716Z,7.57
2022-12-13T09:54:57.592Z,7.65
2022-12-13T09:57:34.265Z,9.73
2022-12-13T10:00:07.675Z,6.90
2022-12-13T10:02:45.367Z,8.57
2022-12-13T10:05:22.236Z,6.10
2022-12-13T10:07:53.882Z,9.55
2022-12-13T10:10:21.797Z,8.93
2022-12-13T10:12:56.821Z,6.63
2022-12-13T10:15:25.089Z,6.18
2022-12-13T10:17:55.737Z,6.47
2022-12-13T10:20:28.837Z,6.45
2022-12-13T10:23:31.190Z,8.32
2022-12-13T10:26:03.373Z,9.55
2022-12-13T10:28:34.187Z,9.23
2022-12-13T10:31:02.713Z,7.25
2022-12-13T10:33:30.047Z,11.07
2022-12-13T10:36:05.032Z,7.25
2022-12-13T10:38:42.899Z,8.57
2022-12-13T10:41:39.955Z,6.68
2022-12-13T10:44:25.151Z,6.03
2022-12-13T10:47:11.890Z,6.57
2022-12-13T10:49:59.055Z,6.53
2022-12-13T10:52:31.085Z,7.80
2022-12-13T10:55:23.539Z,9.07
2022-12-13T10:57:57.914Z,8.10
2022-12-13T11:00:37.961Z,7.78
2022-12-13T11:03:06.063Z,7.35
2022-12-13T11:05:35.983Z,6.25
2022-12-13T11:08:32.941Z,6.20
2022-12-13T11:11:03.441Z,6.53
2022-12-13T11:13:38.877Z,7.57
2022-12-13T11:16:39.193Z,9.13
2022-12-13T11:19:18.326Z,6.28
2022-12-13T11:21:49.602Z,6.63
2022-12-13T11:24:38.385Z,6.50
2022-12-13T11:27:28.604Z,6.57
2022-12-13T11:31:06.138Z,7.25
2022-12-13T11:33:54.613Z,7.40
2022-12-13T11:37:03.764Z,7.53
2022-12-13T11:39:33.812Z,5.55
2022-12-13T11:42:13.175Z,8.93
2022-12-13T11:44:53.731Z,6.30
2022-12-13T11:47:26.367Z,6.85
2022-12-13T11:49:56.697Z,6.43
2022-12-13T11:52:44.906Z,6.68
2022-12-13T11:55:21.722Z,6.55
2022-12-13T11:58:00.348Z,6.72
2022-12-13T12:00:35.091Z,6.50
2022-12-13T12:03:30.785Z,8.00
2022-12-13T12:06:07.562Z,5.82
2022-12-13T12:09:12.631Z,6.88
2022-12-13T12:11:47.522Z,6.32
2022-12-13T12:14:23.260Z,8.40
2022-12-13T12:16:57.702Z,7.97
2022-12-13T12:19:31.655Z,6.47
2022-12-13T12:22:20.615Z,5.95
2022-12-13T12:25:12.941Z,6.50
2022-12-13T12:27:55.346Z,7.30
2022-12-13T12:30:59.873Z,11.77
2022-12-13T12:33:56.672Z,6.45
2022-12-13T12:36:35.637Z,6.90
2022-12-13T12:39:27.646Z,6.35
2022-12-13T12:42:13.389Z,8.73
2022-12-13T12:44:48.496Z,11.27
2022-12-13T12:50:53.695Z,9.68
2022-12-13T12:53:30.227Z,8.07
2022-12-13T12:56:06.565Z,7.45
2022-12-13T12:59:00.166Z,6.80
2022-12-13T13:04:23.205Z,8.30
2022-12-13T13:07:01.449Z,7.45
2022-12-13T13:09:30.867Z,8.95
2022-12-13T13:12:02.486Z,12.48
2022-12-13T13:14:49.700Z,5.80
2022-12-13T13:17:16.954Z,9.30
2022-12-13T13:19:49.960Z,9.77
2022-12-13T13:23:10.219Z,5.90
2022-12-13T13:26:00.206Z,7.30
2022-12-13T13:28:25.185Z,7.10
2022-12-13T13:31:06.346Z,5.30
2022-12-13T13:33:46.130Z,4.88
2022-12-13T13:36:38.968Z,7.28
2022-12-13T13:39:16.204Z,8.65
2022-12-13T13:41:49.630Z,8.77
2022-12-13T13:44:50.482Z,7.28
2022-12-13T13:47:22.227Z,7.13
2022-12-13T13:50:07.937Z,6.28
2022-12-13T13:53:13.305Z,5.93
2022-12-13T13:56:02.127Z,6.63
2022-12-13T13:58:57.580Z,5.38
2022-12-13T14:01:38.042Z,6.30
2022-12-13T14:04:38.184Z,5.30
2022-12-13T14:07:36.495Z,5.15
2022-12-13T14:10:18.636Z,4.90
2022-12-13T14:13:13.260Z,6.13
2022-12-13T14:15:50.106Z,5.78
2022-12-13T14:18:38.559Z,4.82
2022-12-13T14:21:28.269Z,5.78
2022-12-13T14:24:13.467Z,4.80
2022-12-13T14:26:59.023Z,6.30
2022-12-13T14:29:48.088Z,5.10
2022-12-13T14:32:27.562Z,5.60
2022-12-13T14:34:59.535Z,4.20
2022-12-13T14:37:56.717Z,4.47
2022-12-13T14:40:34.717Z,5.65
2022-12-13T14:43:02.497Z,5.13
2022-12-13T14:45:36.738Z,6.10
2022-12-13T14:48:07.182Z,6.40
2022-12-13T14:50:36.884Z,5.43
2022-12-13T14:53:04.588Z,5.57
2022-12-13T14:55:36.418Z,5.18
2022-12-13T14:58:17.329Z,5.60
2022-12-13T15:00:45.945Z,5.70
2022-12-13T15:03:23.644Z,6.15
2022-12-13T15:05:55.478Z,4.80
2022-12-13T15:08:23.633Z,4.90
2022-12-13T15:10:54.757Z,4.55
2022-12-13T15:13:33.366Z,5.22
2022-12-13T15:16:10.444Z,4.53
2022-12-13T15:18:41.642Z,6.28
2022-12-13T15:21:29.418Z,4.57
2022-12-13T15:24:12.792Z,4.95
2022-12-13T15:26:45.365Z,5.13
2022-12-13T15:29:18.666Z,5.05
2022-12-13T15:31:48.939Z,4.45
2022-12-13T15:34:30.384Z,4.28
2022-12-13T15:37:28.958Z,5.07
2022-12-13T15:40:06.823Z,5.32
2022-12-13T15:42:38.581Z,4.40
2022-12-13T15:45:19.200Z,5.13
2022-12-13T15:47:48.004Z,4.15
2022-12-13T15:50:41.020Z,3.83
2022-12-13T15:53:27.450Z,5.20
2022-12-13T15:55:55.291Z,4.50
2022-12-13T15:58:26.301Z,4.50
2022-12-13T16:00:53.872Z,4.97
2022-12-13T16:03:24.724Z,5.22
2022-12-13T16:05:54.985Z,5.07
2022-12-13T16:08:27.905Z,4.50
2022-12-13T16:10:55.512Z,4.43
2022-12-13T16:13:26.150Z,4.53
2022-12-13T16:16:00.141Z,4.38
2022-12-13T16:18:45.904Z,4.85
2022-12-13T16:21:14.431Z,4.88
2022-12-13T16:23:48.314Z,4.57
2022-12-13T16:26:31.316Z,6.00
2022-12-13T16:29:00.235Z,5.13
2022-12-13T16:31:35.849Z,4.55
2022-12-13T16:34:04.847Z,4.47
2022-12-13T16:36:32.365Z,9.80
2022-12-13T16:39:00.002Z,16.38
2022-12-13T16:41:27.696Z,16.75
2022-12-13T16:44:03.383Z,22.20
2022-12-13T16:47:14.280Z,22.38
2022-12-13T16:49:21.540Z,17.42
2022-12-13T16:51:49.462Z,16.00
2022-12-13T16:54:18.347Z,18.63
2022-12-13T16:56:46.213Z,17.63
2022-12-13T16:59:18.687Z,17.02
2022-12-13T17:01:46.857Z,14.35
2022-12-13T17:04:20.769Z,14.07
2022-12-13T17:06:54.559Z,11.82
2022-12-13T17:09:24.010Z,14.50
2022-12-13T17:11:51.814Z,14.30
2022-12-13T17:14:19.121Z,15.75
2022-12-13T17:16:46.508Z,12.50
2022-12-13T17:19:15.704Z,12.50
2022-12-13T17:21:43.522Z,11.13
2022-12-13T17:24:10.811Z,13.02
2022-12-13T17:26:38.138Z,9.63
2022-12-13T17:29:05.371Z,10.48
2022-12-13T17:31:36.126Z,9.20
2022-12-13T17:34:04.328Z,11.63
2022-12-13T17:36:32.000Z,9.10
2022-12-13T17:38:59.433Z,8.80
2022-12-13T17:41:26.841Z,9.68
2022-12-13T17:43:59.344Z,8.82
2022-12-13T17:46:26.661Z,8.80
2022-12-13T17:48:54.044Z,8.00
2022-12-13T17:51:21.316Z,9.52
2022-12-13T17:53:48.625Z,9.75
2022-12-13T17:56:17.720Z,7.60
2022-12-13T17:58:45.978Z,7.13
2022-12-13T18:01:22.087Z,8.55
2022-12-13T18:03:52.336Z,7.07
2022-12-13T18:06:20.060Z,7.70
2022-12-13T18:08:47.758Z,7.45
2022-12-13T18:11:32.907Z,6.38
2022-12-13T18:14:02.649Z,7.53
2022-12-13T18:16:36.385Z,8.13
2022-12-13T18:19:07.144Z,6.88
2022-12-13T18:21:35.726Z,6.97
2022-12-13T18:24:03.171Z,8.82
2022-12-13T18:26:30.641Z,9.75
2022-12-13T18:28:58.394Z,8.05
2022-12-13T18:31:25.836Z,9.48
2022-12-13T18:33:54.686Z,10.60
2022-12-13T18:36:27.812Z,7.20
2022-12-13T18:38:58.042Z,7.70
2022-12-13T18:41:28.392Z,10.32
2022-12-13T18:43:59.634Z,6.25
2022-12-13T18:46:29.793Z,7.63
2022-12-13T18:48:57.803Z,6.93
2022-12-13T18:51:25.890Z,6.60
2022-12-13T18:53:54.523Z,7.75
2022-12-13T18:56:22.841Z,5.57
2022-12-13T18:58:50.907Z,7.72
2022-12-13T19:01:19.102Z,7.88
2022-12-13T19:03:47.992Z,11.10
2022-12-13T19:06:21.416Z,6.22
2022-12-13T19:08:51.482Z,7.35
2022-12-13T19:11:19.427Z,5.72
2022-12-13T19:13:47.436Z,4.70
2022-12-13T19:16:18.853Z,9.38
2022-12-13T19:18:47.537Z,5.93
2022-12-13T19:21:19.029Z,4.90
2022-12-13T19:23:55.064Z,7.50
2022-12-13T19:26:25.116Z,6.30
2022-12-13T19:28:52.538Z,6.28
2022-12-13T19:31:20.743Z,5.50
2022-12-13T19:33:50.545Z,8.82
2022-12-13T19:36:18.312Z,6.47
2022-12-13T19:38:45.539Z,5.15
2022-12-13T19:41:15.457Z,5.28
2022-12-13T19:43:50.624Z,6.22
2022-12-13T19:46:20.382Z,5.63
2022-12-13T19:48:47.740Z,9.02
2022-12-13T19:51:15.475Z,6.63
2022-12-13T19:53:42.788Z,7.20
2022-12-13T19:56:15.287Z,5.28
2022-12-13T19:58:42.598Z,5.07
2022-12-13T20:01:11.199Z,5.95
2022-12-13T20:03:40.871Z,5.60
2022-12-13T20:06:11.501Z,6.10
2022-12-13T20:08:38.831Z,6.15
2022-12-13T20:11:15.021Z,6.20
2022-12-13T20:13:42.629Z,5.85
2022-12-13T20:16:15.962Z,4.38
2022-12-13T20:18:43.378Z,5.70
2022-12-13T20:21:12.817Z,6.35
2022-12-13T20:23:49.496Z,7.28
2022-12-13T20:26:22.951Z,6.10
2022-12-13T20:28:50.877Z,5.60
2022-12-13T20:31:21.438Z,5.60
2022-12-13T20:33:57.886Z,5.53
2022-12-13T20:36:27.735Z,5.93
2022-12-13T20:38:57.780Z,6.32
2022-12-13T20:41:27.688Z,6.22
2022-12-13T20:43:57.155Z,4.93
2022-12-13T20:46:26.059Z,5.00
2022-12-13T20:48:54.980Z,7.43
2022-12-13T20:51:25.090Z,6.53
2022-12-13T20:53:53.176Z,4.97
2022-12-13T20:56:26.285Z,8.48
2022-12-13T21:01:23.500Z,6.22
2022-12-13T21:03:53.942Z,5.43
2022-12-13T21:06:21.502Z,4.90
2022-12-13T21:08:51.625Z,5.30
2022-12-13T21:11:25.675Z,5.13
2022-12-13T21:14:01.177Z,5.65
2022-12-13T21:16:52.790Z,5.45
2022-12-13T21:19:23.389Z,7.10
2022-12-13T21:21:50.900Z,5.93
2022-12-13T21:24:19.873Z,5.38
2022-12-13T21:26:47.383Z,5.15
2022-12-13T21:29:16.195Z,6.80
2022-12-13T21:31:48.866Z,6.05
2022-12-13T21:34:17.824Z,5.95
2022-12-13T21:36:47.740Z,6.55
2022-12-13T21:39:27.735Z,5.53
2022-12-13T21:41:55.837Z,5.28
2022-12-13T21:44:23.652Z,5.97
2022-12-13T21:49:38.595Z,6.93
2022-12-13T21:52:05.976Z,5.30
2022-12-13T21:54:33.277Z,6.22
2022-12-13T21:57:19.286Z,5.78
2022-12-13T21:59:46.549Z,5.15
2022-12-13T22:02:16.850Z,6.05
2022-12-13T22:04:52.077Z,6.53
2022-12-13T22:07:33.211Z,6.05
2022-12-13T22:10:01.847Z,6.32
2022-12-13T22:12:34.819Z,5.95
2022-12-13T22:15:04.649Z,7.80
2022-12-13T22:17:35.515Z,5.78
2022-12-13T22:20:09.663Z,4.95
2022-12-13T22:22:41.945Z,5.85
2022-12-13T22:25:10.078Z,6.10
2022-12-13T22:27:37.577Z,7.10
2022-12-13T22:30:05.437Z,5.53
2022-12-13T22:32:33.922Z,5.60
2022-12-13T22:35:01.179Z,6.75
2022-12-13T22:37:28.475Z,6.38
2022-12-13T22:39:55.785Z,6.88
2022-12-13T22:42:23.029Z,5.15
2022-12-13T22:44:51.003Z,4.57
2022-12-13T22:47:18.285Z,5.40
2022-12-13T22:49:48.586Z,7.28
2022-12-13T22:52:17.019Z,5.32
2022-12-13T22:54:44.379Z,5.75
2022-12-13T22:57:13.812Z,5.03
2022-12-13T22:59:41.200Z,6.15
2022-12-13T23:02:10.124Z,6.80
2022-12-13T23:04:37.683Z,7.15
2022-12-13T23:07:05.019Z,6.85
2022-12-13T23:09:32.319Z,6.80
2022-12-13T23:12:18.201Z,5.43
2022-12-13T23:14:45.482Z,5.32
2022-12-13T23:17:12.964Z,6.57
2022-12-13T23:19:49.803Z,8.13
2022-12-13T23:22:25.189Z,5.70
2022-12-13T23:24:53.457Z,5.03
2022-12-13T23:27:22.998Z,7.25
2022-12-13T23:29:50.489Z,4.90
2022-12-13T23:32:17.797Z,5.28
2022-12-13T23:34:45.155Z,6.22
2022-12-13T23:37:12.647Z,6.05
2022-12-13T23:39:40.102Z,4.97
2022-12-13T23:42:07.421Z,5.38
2022-12-13T23:44:34.872Z,5.05
2022-12-13T23:47:02.234Z,5.75
2022-12-13T23:49:29.480Z,6.30
2022-12-13T23:51:56.784Z,4.13
2022-12-13T23:54:24.392Z,5.40
2022-12-13T23:56:51.797Z,4.95
2022-12-13T23:59:19.113Z,5.35
